createdAt,value
2016-06-10T00:00:01.033Z,14.1
2016-06-10T00:00:11.020Z,14.1
2016-06-10T00:00:21.020Z,14.1
2016-06-10T00:00:31.020Z,14.1
2016-06-10T00:00:41.005Z,14
2016-06-10T00:00:51.005Z,14
2016-06-10T00:01:01.005Z,14.1
2016-06-10T00:01:10.992Z,14
2016-06-10T00:01:20.992Z,14
2016-06-10T00:01:30.992Z,14
2016-06-10T00:01:40.977Z,14
2016-06-10T00:01:50.977Z,14.1
2016-06-10T00:02:00.977Z,14
2016-06-10T00:02:10.964Z,14
2016-06-10T00:02:20.964Z,13.9
2016-06-10T00:02:30.964Z,13.8
2016-06-10T00:02:40.948Z,13.9
2016-06-10T00:02:50.948Z,13.8
2016-06-10T00:03:00.933Z,13.9
2016-06-10T00:03:10.936Z,13.9
2016-06-10T00:03:20.936Z,13.9
2016-06-10T00:03:30.920Z,13.9
2016-06-10T00:03:40.920Z,13.9
2016-06-10T00:03:50.920Z,14
2016-06-10T00:04:00.904Z,14.1
2016-06-10T00:04:10.907Z,14
2016-06-10T00:04:20.907Z,14
2016-06-10T00:04:30.892Z,14
2016-06-10T00:04:40.892Z,14
2016-06-10T00:04:50.892Z,14
2016-06-10T00:05:00.876Z,14
2016-06-10T00:05:10.880Z,14
2016-06-10T00:05:20.880Z,14.1
2016-06-10T00:05:30.865Z,14.1
2016-06-10T00:05:40.865Z,14
2016-06-10T00:05:50.849Z,14
2016-06-10T00:06:00.849Z,14
2016-06-10T00:06:10.851Z,14
2016-06-10T00:06:20.835Z,14
2016-06-10T00:06:30.835Z,14.1
2016-06-10T00:06:40.835Z,14
2016-06-10T00:06:50.820Z,14
2016-06-10T00:07:00.820Z,14.1
2016-06-10T00:07:10.824Z,14
2016-06-10T00:07:20.808Z,14
2016-06-10T00:07:30.808Z,14.1
2016-06-10T00:07:40.808Z,14
2016-06-10T00:07:50.792Z,13.9
2016-06-10T00:08:00.792Z,14
2016-06-10T00:08:10.795Z,13.9
2016-06-10T00:08:20.780Z,13.9
2016-06-10T00:08:30.780Z,13.9
2016-06-10T00:08:40.780Z,13.9
2016-06-10T00:08:50.764Z,14
2016-06-10T00:09:00.764Z,13.9
2016-06-10T00:09:10.752Z,13.9
2016-06-10T00:09:20.752Z,14
2016-06-10T00:09:30.752Z,13.8
2016-06-10T00:09:40.736Z,13.9
2016-06-10T00:09:50.923Z,14
2016-06-10T00:10:00.736Z,13.9
2016-06-10T00:10:10.723Z,13.9
2016-06-10T00:10:20.723Z,14
2016-06-10T00:10:30.723Z,13.9
2016-06-10T00:10:40.708Z,14
2016-06-10T00:10:50.708Z,14
2016-06-10T00:11:00.708Z,14
2016-06-10T00:11:10.695Z,14.1
2016-06-10T00:11:20.695Z,14
2016-06-10T00:11:30.695Z,14.1
2016-06-10T00:11:40.679Z,14
2016-06-10T00:11:50.679Z,14
2016-06-10T00:12:00.679Z,14
2016-06-10T00:12:10.667Z,14.1
2016-06-10T00:12:20.667Z,14
2016-06-10T00:12:30.667Z,14
2016-06-10T00:12:40.651Z,14.1
2016-06-10T00:12:50.651Z,14
2016-06-10T00:13:00.636Z,14.1
2016-06-10T00:13:10.639Z,14
2016-06-10T00:13:20.639Z,14
2016-06-10T00:13:30.639Z,14
2016-06-10T00:13:40.623Z,14.1
2016-06-10T00:13:50.623Z,14
2016-06-10T00:14:00.607Z,14.1
2016-06-10T00:14:10.610Z,14
2016-06-10T00:14:20.610Z,14
2016-06-10T00:14:30.595Z,14
2016-06-10T00:14:40.595Z,14
2016-06-10T00:14:50.595Z,14
2016-06-10T00:15:00.579Z,14
2016-06-10T00:15:10.579Z,13.9
2016-06-10T00:15:20.582Z,13.9
2016-06-10T00:15:30.566Z,13.9
2016-06-10T00:15:40.566Z,14
2016-06-10T00:15:50.566Z,14
2016-06-10T00:16:00.551Z,13.9
2016-06-10T00:16:10.551Z,13.9
2016-06-10T00:16:20.554Z,13.9
2016-06-10T00:16:30.538Z,13.9
2016-06-10T00:16:40.538Z,13.8
2016-06-10T00:16:50.538Z,13.8
2016-06-10T00:17:00.523Z,13.8
2016-06-10T00:17:10.523Z,13.7
2016-06-10T00:17:20.527Z,13.8
2016-06-10T00:17:30.511Z,13.8
2016-06-10T00:17:40.511Z,13.8
2016-06-10T00:17:50.495Z,13.8
2016-06-10T00:18:00.495Z,13.8
2016-06-10T00:18:10.495Z,13.9
2016-06-10T00:18:20.483Z,13.9
2016-06-10T00:18:30.483Z,13.9
2016-06-10T00:18:40.483Z,13.9
2016-06-10T00:18:50.467Z,13.9
2016-06-10T00:19:00.467Z,14
2016-06-10T00:19:10.467Z,14
2016-06-10T00:19:20.453Z,14
2016-06-10T00:19:30.453Z,14
2016-06-10T00:19:40.453Z,14
2016-06-10T00:19:50.438Z,13.9
2016-06-10T00:20:00.438Z,13.9
2016-06-10T00:20:10.438Z,13.9
2016-06-10T00:20:20.425Z,13.9
2016-06-10T00:20:30.425Z,13.9
2016-06-10T00:20:40.425Z,13.9
2016-06-10T00:20:50.410Z,13.9
2016-06-10T00:21:00.410Z,14
2016-06-10T00:21:10.394Z,13.9
2016-06-10T00:21:20.398Z,14
2016-06-10T00:21:30.398Z,13.9
2016-06-10T00:21:40.398Z,14
2016-06-10T00:21:50.382Z,13.9
2016-06-10T00:22:00.382Z,13.9
2016-06-10T00:22:10.367Z,14
2016-06-10T00:22:20.370Z,14
2016-06-10T00:22:30.370Z,14
2016-06-10T00:22:40.354Z,13.9
2016-06-10T00:22:50.354Z,14
2016-06-10T00:23:00.354Z,14
2016-06-10T00:23:10.338Z,14
2016-06-10T00:23:20.340Z,14
2016-06-10T00:23:30.340Z,14
2016-06-10T00:23:40.325Z,13.9
2016-06-10T00:23:50.325Z,13.9
2016-06-10T00:24:00.325Z,13.9
2016-06-10T00:24:10.372Z,14
2016-06-10T00:24:20.391Z,14
2016-06-10T00:24:30.298Z,13.9
2016-06-10T00:24:40.298Z,13.9
2016-06-10T00:24:50.423Z,13.9
2016-06-10T00:25:00.282Z,14
2016-06-10T00:25:10.282Z,14
2016-06-10T00:25:20.285Z,14
2016-06-10T00:25:30.285Z,13.9
2016-06-10T00:25:40.269Z,13.9
2016-06-10T00:25:50.269Z,14
2016-06-10T00:26:00.254Z,14
2016-06-10T00:26:10.254Z,13.9
2016-06-10T00:26:20.257Z,13.9
2016-06-10T00:26:30.241Z,13.9
2016-06-10T00:26:40.241Z,13.9
2016-06-10T00:26:50.241Z,14
2016-06-10T00:27:00.225Z,13.9
2016-06-10T00:27:10.225Z,13.9
2016-06-10T00:27:20.228Z,13.9
2016-06-10T00:27:30.213Z,13.9
2016-06-10T00:27:40.213Z,13.9
2016-06-10T00:27:50.213Z,14
2016-06-10T00:28:00.197Z,13.9
2016-06-10T00:28:10.197Z,13.9
2016-06-10T00:28:20.200Z,13.9
2016-06-10T00:28:30.185Z,13.9
2016-06-10T00:28:40.185Z,13.9
2016-06-10T00:28:50.185Z,13.9
2016-06-10T00:29:00.169Z,13.9
2016-06-10T00:29:10.169Z,13.9
2016-06-10T00:29:20.156Z,13.9
2016-06-10T00:29:30.156Z,13.9
2016-06-10T00:29:40.156Z,13.9
2016-06-10T00:29:50.141Z,13.9
2016-06-10T00:30:00.141Z,13.9
2016-06-10T00:30:10.141Z,13.9
2016-06-10T00:30:20.128Z,14
2016-06-10T00:30:30.128Z,14
2016-06-10T00:30:40.128Z,14
2016-06-10T00:30:50.112Z,13.9
2016-06-10T00:31:00.112Z,13.9
2016-06-10T00:31:10.112Z,14
2016-06-10T00:31:20.100Z,13.9
2016-06-10T00:31:30.100Z,13.9
2016-06-10T00:31:40.084Z,13.8
2016-06-10T00:31:50.084Z,13.8
2016-06-10T00:32:00.084Z,13.8
2016-06-10T00:32:10.069Z,13.9
2016-06-10T00:32:20.072Z,13.8
2016-06-10T00:32:30.072Z,13.9
2016-06-10T00:32:40.056Z,13.8
2016-06-10T00:32:50.056Z,13.8
2016-06-10T00:33:00.056Z,13.8
2016-06-10T00:33:10.040Z,13.8
2016-06-10T00:33:20.043Z,13.8
2016-06-10T00:33:30.043Z,13.8
2016-06-10T00:33:40.028Z,13.8
2016-06-10T00:33:50.028Z,13.8
2016-06-10T00:34:00.012Z,13.8
2016-06-10T00:34:10.012Z,13.8
2016-06-10T00:34:20.016Z,13.8
2016-06-10T00:34:30.016Z,13.8
2016-06-10T00:34:40.000Z,13.8
2016-06-10T00:34:50.000Z,13.8
2016-06-10T00:35:00.000Z,13.8
2016-06-10T00:35:09.985Z,13.9
2016-06-10T00:35:19.988Z,13.9
2016-06-10T00:35:29.972Z,13.8
2016-06-10T00:35:39.972Z,13.8
2016-06-10T00:35:49.972Z,13.8
2016-06-10T00:35:59.972Z,13.8
2016-06-10T00:36:09.957Z,13.8
2016-06-10T00:36:19.960Z,13.9
2016-06-10T00:36:29.944Z,13.9
2016-06-10T00:36:39.944Z,13.9
2016-06-10T00:36:49.944Z,13.9
2016-06-10T00:36:59.928Z,13.9
2016-06-10T00:37:09.928Z,13.9
2016-06-10T00:37:19.931Z,13.9
2016-06-10T00:37:29.916Z,13.9
2016-06-10T00:37:39.916Z,13.9
2016-06-10T00:37:49.900Z,13.9
2016-06-10T00:37:59.900Z,13.9
2016-06-10T00:38:09.900Z,14
2016-06-10T00:38:19.887Z,13.9
2016-06-10T00:38:29.887Z,13.9
2016-06-10T00:38:39.887Z,13.9
2016-06-10T00:38:49.872Z,13.9
2016-06-10T00:38:59.872Z,13.9
2016-06-10T00:39:09.872Z,13.9
2016-06-10T00:39:19.859Z,13.8
2016-06-10T00:39:29.859Z,14
2016-06-10T00:39:40.047Z,13.9
2016-06-10T00:39:49.844Z,13.9
2016-06-10T00:39:59.844Z,14
2016-06-10T00:40:10.375Z,13.9
2016-06-10T00:40:19.956Z,13.9
2016-06-10T00:40:29.831Z,13.9
2016-06-10T00:40:39.831Z,13.9
2016-06-10T00:40:49.815Z,13.9
2016-06-10T00:40:59.815Z,13.9
2016-06-10T00:41:09.815Z,13.9
2016-06-10T00:41:19.803Z,13.9
2016-06-10T00:41:29.803Z,13.9
2016-06-10T00:41:39.803Z,13.9
2016-06-10T00:41:49.787Z,13.9
2016-06-10T00:41:59.787Z,13.9
2016-06-10T00:42:09.787Z,13.8
2016-06-10T00:42:19.774Z,13.8
2016-06-10T00:42:29.774Z,13.8
2016-06-10T00:42:39.759Z,13.7
2016-06-10T00:42:49.759Z,13.8
2016-06-10T00:42:59.759Z,13.8
2016-06-10T00:43:09.743Z,13.7
2016-06-10T00:43:19.747Z,13.8
2016-06-10T00:43:29.747Z,13.9
2016-06-10T00:43:39.732Z,13.9
2016-06-10T00:43:49.732Z,13.9
2016-06-10T00:43:59.732Z,13.9
2016-06-10T00:44:09.716Z,13.9
2016-06-10T00:44:19.718Z,13.9
2016-06-10T00:44:29.718Z,13.9
2016-06-10T00:44:39.702Z,13.9
2016-06-10T00:44:49.718Z,13.9
2016-06-10T00:44:59.702Z,13.9
2016-06-10T00:45:09.687Z,13.9
2016-06-10T00:45:19.690Z,13.7
2016-06-10T00:45:29.674Z,13.8
2016-06-10T00:45:39.674Z,13.9
2016-06-10T00:45:49.674Z,13.9
2016-06-10T00:45:59.658Z,13.9
2016-06-10T00:46:09.658Z,13.9
2016-06-10T00:46:19.662Z,13.8
2016-06-10T00:46:29.647Z,13.9
2016-06-10T00:46:39.647Z,13.9
2016-06-10T00:46:49.647Z,13.9
2016-06-10T00:46:59.631Z,13.9
2016-06-10T00:47:09.631Z,13.9
2016-06-10T00:47:19.634Z,13.9
2016-06-10T00:47:29.619Z,13.9
2016-06-10T00:47:39.619Z,13.9
2016-06-10T00:47:49.619Z,13.9
2016-06-10T00:47:59.603Z,13.9
2016-06-10T00:48:09.603Z,13.9
2016-06-10T00:48:19.590Z,13.9
2016-06-10T00:48:29.590Z,13.9
2016-06-10T00:48:39.590Z,13.9
2016-06-10T00:48:49.575Z,13.9
2016-06-10T00:48:59.575Z,13.9
2016-06-10T00:49:09.575Z,13.9
2016-06-10T00:49:19.561Z,13.8
2016-06-10T00:49:29.561Z,13.8
2016-06-10T00:49:39.561Z,13.9
2016-06-10T00:49:49.545Z,13.9
2016-06-10T00:49:59.545Z,13.9
2016-06-10T00:50:09.545Z,13.9
2016-06-10T00:50:19.534Z,13.9
2016-06-10T00:50:29.534Z,14
2016-06-10T00:50:39.534Z,13.9
2016-06-10T00:50:49.518Z,13.8
2016-06-10T00:50:59.518Z,13.9
2016-06-10T00:51:09.503Z,13.9
2016-06-10T00:51:19.506Z,13.9
2016-06-10T00:51:29.506Z,13.9
2016-06-10T00:51:39.506Z,13.9
2016-06-10T00:51:49.490Z,13.9
2016-06-10T00:51:59.490Z,13.9
2016-06-10T00:52:09.474Z,13.9
2016-06-10T00:52:19.477Z,13.8
2016-06-10T00:52:29.477Z,13.9
2016-06-10T00:52:39.462Z,13.9
2016-06-10T00:52:49.462Z,13.9
2016-06-10T00:52:59.462Z,13.8
2016-06-10T00:53:09.446Z,13.8
2016-06-10T00:53:19.449Z,13.8
2016-06-10T00:53:29.449Z,13.8
2016-06-10T00:53:39.433Z,13.7
2016-06-10T00:53:49.433Z,13.8
2016-06-10T00:53:59.433Z,13.8
2016-06-10T00:54:09.418Z,13.8
2016-06-10T00:54:19.952Z,13.8
2016-06-10T00:54:29.405Z,13.8
2016-06-10T00:54:39.405Z,13.8
2016-06-10T00:54:49.405Z,13.8
2016-06-10T00:54:59.530Z,13.7
2016-06-10T00:55:09.999Z,13.7
2016-06-10T00:55:19.393Z,13.8
2016-06-10T00:55:29.471Z,13.8
2016-06-10T00:55:39.377Z,13.7
2016-06-10T00:55:49.377Z,13.7
2016-06-10T00:55:59.361Z,13.8
2016-06-10T00:56:09.361Z,13.7
2016-06-10T00:56:19.364Z,13.7
2016-06-10T00:56:29.349Z,13.7
2016-06-10T00:56:39.349Z,13.7
2016-06-10T00:56:49.333Z,13.7
2016-06-10T00:56:59.333Z,13.7
2016-06-10T00:57:09.333Z,13.6
2016-06-10T00:57:19.336Z,13.7
2016-06-10T00:57:29.320Z,13.7
2016-06-10T00:57:39.320Z,13.7
2016-06-10T00:57:49.305Z,13.7
2016-06-10T00:57:59.305Z,13.7
2016-06-10T00:58:09.305Z,13.6
2016-06-10T00:58:19.292Z,13.7
2016-06-10T00:58:29.308Z,13.6
2016-06-10T00:58:39.292Z,13.7
2016-06-10T00:58:49.277Z,13.7
2016-06-10T00:58:59.277Z,13.7
2016-06-10T00:59:09.277Z,13.7
2016-06-10T00:59:19.265Z,13.6
2016-06-10T00:59:29.265Z,13.6
2016-06-10T00:59:39.265Z,13.7
2016-06-10T00:59:49.249Z,13.6
2016-06-10T00:59:59.249Z,13.6
2016-06-10T01:00:09.249Z,13.6
2016-06-10T01:00:19.237Z,13.7
2016-06-10T01:00:29.237Z,13.6
2016-06-10T01:00:39.237Z,13.7
2016-06-10T01:00:49.221Z,13.6
2016-06-10T01:00:59.221Z,13.6
2016-06-10T01:01:09.221Z,13.7
2016-06-10T01:01:19.208Z,13.7
2016-06-10T01:01:29.208Z,13.6
2016-06-10T01:01:39.193Z,13.6
2016-06-10T01:01:49.193Z,13.6
2016-06-10T01:01:59.193Z,13.6
2016-06-10T01:02:09.177Z,13.6
2016-06-10T01:02:19.180Z,13.6
2016-06-10T01:02:29.180Z,13.7
2016-06-10T01:02:39.165Z,13.7
2016-06-10T01:02:49.165Z,13.6
2016-06-10T01:02:59.165Z,13.6
2016-06-10T01:03:09.149Z,13.7
2016-06-10T01:03:19.152Z,13.7
2016-06-10T01:03:29.152Z,13.7
2016-06-10T01:03:39.136Z,13.6
2016-06-10T01:03:49.136Z,13.7
2016-06-10T01:03:59.136Z,13.7
2016-06-10T01:04:09.121Z,13.6
2016-06-10T01:04:19.124Z,13.7
2016-06-10T01:04:29.108Z,13.6
2016-06-10T01:04:39.108Z,13.7
2016-06-10T01:04:49.108Z,13.6
2016-06-10T01:04:59.092Z,13.6
2016-06-10T01:05:09.092Z,13.6
2016-06-10T01:05:19.095Z,13.6
2016-06-10T01:05:29.080Z,13.6
2016-06-10T01:05:39.080Z,13.6
2016-06-10T01:05:49.080Z,13.6
2016-06-10T01:05:59.064Z,13.6
2016-06-10T01:06:09.064Z,13.6
2016-06-10T01:06:19.067Z,13.6
2016-06-10T01:06:29.052Z,13.6
2016-06-10T01:06:39.052Z,13.6
2016-06-10T01:06:49.052Z,13.6
2016-06-10T01:06:59.036Z,13.6
2016-06-10T01:07:09.036Z,13.6
2016-06-10T01:07:19.039Z,13.6
2016-06-10T01:07:29.023Z,13.6
2016-06-10T01:07:39.023Z,13.6
2016-06-10T01:07:49.023Z,13.6
2016-06-10T01:07:59.008Z,13.6
2016-06-10T01:08:09.008Z,13.6
2016-06-10T01:08:18.995Z,13.6
2016-06-10T01:08:28.995Z,13.6
2016-06-10T01:08:38.995Z,13.6
2016-06-10T01:08:48.979Z,13.6
2016-06-10T01:08:58.979Z,13.6
2016-06-10T01:09:08.979Z,13.6
2016-06-10T01:09:18.967Z,13.6
2016-06-10T01:09:28.982Z,13.5
2016-06-10T01:09:38.951Z,13.5
2016-06-10T01:09:48.951Z,13.6
2016-06-10T01:09:58.951Z,13.5
2016-06-10T01:10:08.936Z,13.5
2016-06-10T01:10:18.955Z,13.5
2016-06-10T01:10:28.940Z,13.6
2016-06-10T01:10:38.924Z,13.6
2016-06-10T01:10:48.924Z,13.5
2016-06-10T01:10:58.924Z,13.5
2016-06-10T01:11:08.924Z,13.6
2016-06-10T01:11:18.911Z,13.6
2016-06-10T01:11:28.911Z,13.6
2016-06-10T01:11:38.896Z,13.6
2016-06-10T01:11:48.896Z,13.6
2016-06-10T01:11:58.896Z,13.6
2016-06-10T01:12:08.880Z,13.6
2016-06-10T01:12:18.883Z,13.5
2016-06-10T01:12:28.883Z,13.6
2016-06-10T01:12:38.867Z,13.4
2016-06-10T01:12:48.867Z,13.5
2016-06-10T01:12:58.867Z,13.5
2016-06-10T01:13:08.852Z,13.5
2016-06-10T01:13:18.855Z,13.5
2016-06-10T01:13:28.855Z,13.4
2016-06-10T01:13:38.839Z,13.5
2016-06-10T01:13:48.839Z,13.4
2016-06-10T01:13:58.824Z,13.4
2016-06-10T01:14:08.824Z,13.4
2016-06-10T01:14:18.827Z,13.4
2016-06-10T01:14:28.811Z,13.5
2016-06-10T01:14:38.811Z,13.5
2016-06-10T01:14:48.811Z,13.5
2016-06-10T01:14:58.811Z,13.5
2016-06-10T01:15:08.795Z,13.5
2016-06-10T01:15:18.798Z,13.5
2016-06-10T01:15:28.783Z,13.4
2016-06-10T01:15:38.783Z,13.5
2016-06-10T01:15:48.783Z,13.5
2016-06-10T01:15:58.767Z,13.5
2016-06-10T01:16:08.767Z,13.4
2016-06-10T01:16:18.754Z,13.6
2016-06-10T01:16:28.754Z,13.5
2016-06-10T01:16:38.754Z,13.5
2016-06-10T01:16:48.754Z,13.5
2016-06-10T01:16:58.754Z,13.5
2016-06-10T01:17:08.739Z,13.4
2016-06-10T01:17:18.726Z,13.4
2016-06-10T01:17:28.726Z,13.5
2016-06-10T01:17:38.726Z,13.5
2016-06-10T01:17:48.711Z,13.4
2016-06-10T01:17:58.711Z,13.4
2016-06-10T01:18:08.711Z,13.5
2016-06-10T01:18:18.698Z,13.4
2016-06-10T01:18:28.698Z,13.4
2016-06-10T01:18:38.698Z,13.4
2016-06-10T01:18:48.682Z,13.4
2016-06-10T01:18:58.682Z,13.4
2016-06-10T01:19:08.667Z,13.4
2016-06-10T01:19:18.670Z,13.5
2016-06-10T01:19:28.670Z,13.5
2016-06-10T01:19:38.654Z,13.5
2016-06-10T01:19:48.654Z,13.5
2016-06-10T01:19:58.654Z,13.4
2016-06-10T01:20:08.638Z,13.5
2016-06-10T01:20:18.642Z,13.5
2016-06-10T01:20:28.642Z,13.5
2016-06-10T01:20:38.627Z,13.5
2016-06-10T01:20:48.627Z,13.4
2016-06-10T01:20:58.627Z,13.5
2016-06-10T01:21:08.611Z,13.4
2016-06-10T01:21:18.613Z,13.4
2016-06-10T01:21:28.613Z,13.4
2016-06-10T01:21:38.613Z,13.4
2016-06-10T01:21:48.613Z,13.5
2016-06-10T01:21:58.582Z,13.4
2016-06-10T01:22:08.582Z,13.3
2016-06-10T01:22:18.585Z,13.2
2016-06-10T01:22:28.569Z,13.2
2016-06-10T01:22:38.585Z,13.1
2016-06-10T01:22:48.569Z,13.2
2016-06-10T01:22:58.554Z,13.2
2016-06-10T01:23:08.554Z,13.2
2016-06-10T01:23:18.557Z,13.2
2016-06-10T01:23:28.541Z,13.2
2016-06-10T01:23:38.541Z,13.1
2016-06-10T01:23:48.541Z,13.1
2016-06-10T01:23:58.525Z,13.2
2016-06-10T01:24:08.525Z,13.2
2016-06-10T01:24:18.529Z,13.3
2016-06-10T01:24:28.514Z,13.2
2016-06-10T01:24:38.514Z,13.2
2016-06-10T01:24:48.514Z,13.1
2016-06-10T01:24:58.498Z,13.2
2016-06-10T01:25:09.092Z,13.3
2016-06-10T01:25:18.500Z,13.2
2016-06-10T01:25:28.656Z,13.2
2016-06-10T01:25:38.485Z,13.2
2016-06-10T01:25:48.469Z,13.2
2016-06-10T01:25:58.469Z,13.3
2016-06-10T01:26:08.469Z,13.2
2016-06-10T01:26:18.473Z,13.3
2016-06-10T01:26:28.473Z,13.2
2016-06-10T01:26:38.457Z,13.3
2016-06-10T01:26:48.442Z,13.3
2016-06-10T01:26:58.442Z,13.2
2016-06-10T01:27:08.442Z,13.2
2016-06-10T01:27:18.428Z,13.3
2016-06-10T01:27:28.428Z,13.3
2016-06-10T01:27:38.428Z,13.3
2016-06-10T01:27:48.428Z,13.3
2016-06-10T01:27:58.412Z,13.3
2016-06-10T01:28:08.412Z,13.4
2016-06-10T01:28:18.401Z,13.4
2016-06-10T01:28:28.401Z,13.3
2016-06-10T01:28:38.385Z,13.3
2016-06-10T01:28:48.385Z,13.3
2016-06-10T01:28:58.385Z,13.3
2016-06-10T01:29:08.370Z,13.3
2016-06-10T01:29:18.372Z,13.3
2016-06-10T01:29:28.372Z,13.3
2016-06-10T01:29:38.356Z,13.3
2016-06-10T01:29:48.356Z,13.3
2016-06-10T01:29:58.356Z,13.4
2016-06-10T01:30:08.340Z,13.3
2016-06-10T01:30:18.344Z,13.3
2016-06-10T01:30:28.344Z,13.3
2016-06-10T01:30:38.329Z,13.3
2016-06-10T01:30:48.329Z,13.3
2016-06-10T01:30:58.329Z,13.2
2016-06-10T01:31:08.313Z,13.3
2016-06-10T01:31:18.315Z,13.3
2016-06-10T01:31:28.299Z,13.3
2016-06-10T01:31:38.299Z,13.3
2016-06-10T01:31:48.299Z,13.2
2016-06-10T01:31:58.299Z,13.2
2016-06-10T01:32:08.284Z,13.3
2016-06-10T01:32:18.288Z,13.3
2016-06-10T01:32:28.272Z,13.2
2016-06-10T01:32:38.272Z,13.3
2016-06-10T01:32:48.272Z,13.3
2016-06-10T01:32:58.257Z,13.3
2016-06-10T01:33:08.257Z,13.3
2016-06-10T01:33:18.244Z,13.4
2016-06-10T01:33:28.244Z,13.3
2016-06-10T01:33:38.244Z,13.3
2016-06-10T01:33:48.244Z,13.2
2016-06-10T01:33:58.228Z,13.2
2016-06-10T01:34:08.228Z,13.3
2016-06-10T01:34:18.216Z,13.3
2016-06-10T01:34:28.216Z,13.2
2016-06-10T01:34:38.216Z,13.1
2016-06-10T01:34:48.200Z,13.1
2016-06-10T01:34:58.200Z,13.2
2016-06-10T01:35:08.216Z,13.1
2016-06-10T01:35:18.187Z,13.1
2016-06-10T01:35:28.187Z,13.1
2016-06-10T01:35:38.187Z,13.1
2016-06-10T01:35:48.172Z,13.1
2016-06-10T01:35:58.172Z,13
2016-06-10T01:36:08.172Z,13
2016-06-10T01:36:18.160Z,13
2016-06-10T01:36:28.160Z,13
2016-06-10T01:36:38.145Z,13
2016-06-10T01:36:48.145Z,13
2016-06-10T01:36:58.145Z,12.9
2016-06-10T01:37:08.145Z,12.9
2016-06-10T01:37:18.131Z,12.9
2016-06-10T01:37:28.131Z,13
2016-06-10T01:37:38.115Z,13
2016-06-10T01:37:48.115Z,13
2016-06-10T01:37:58.115Z,12.9
2016-06-10T01:38:08.131Z,12.9
2016-06-10T01:38:18.103Z,12.9
2016-06-10T01:38:28.103Z,12.8
2016-06-10T01:38:38.087Z,12.8
2016-06-10T01:38:48.087Z,12.8
2016-06-10T01:38:58.071Z,12.8
2016-06-10T01:39:08.071Z,12.9
2016-06-10T01:39:18.075Z,12.8
2016-06-10T01:39:28.060Z,12.8
2016-06-10T01:39:38.060Z,12.9
2016-06-10T01:39:48.060Z,12.8
2016-06-10T01:39:58.044Z,12.8
2016-06-10T01:40:08.044Z,12.8
2016-06-10T01:40:18.047Z,12.8
2016-06-10T01:40:28.438Z,12.7
2016-06-10T01:40:38.110Z,12.7
2016-06-10T01:40:48.125Z,12.8
2016-06-10T01:40:58.016Z,12.8
2016-06-10T01:41:08.016Z,12.8
2016-06-10T01:41:18.065Z,12.8
2016-06-10T01:41:28.002Z,12.8
2016-06-10T01:41:38.002Z,12.7
2016-06-10T01:41:48.002Z,12.7
2016-06-10T01:41:57.987Z,12.7
2016-06-10T01:42:07.987Z,12.7
2016-06-10T01:42:17.975Z,12.8
2016-06-10T01:42:27.975Z,12.8
2016-06-10T01:42:37.975Z,12.8
2016-06-10T01:42:47.975Z,12.8
2016-06-10T01:42:57.959Z,12.8
2016-06-10T01:43:07.959Z,12.8
2016-06-10T01:43:17.947Z,12.8
2016-06-10T01:43:27.947Z,12.8
2016-06-10T01:43:37.947Z,12.9
2016-06-10T01:43:47.947Z,12.8
2016-06-10T01:43:57.931Z,12.9
2016-06-10T01:44:07.931Z,12.8
2016-06-10T01:44:17.919Z,12.9
2016-06-10T01:44:27.919Z,12.9
2016-06-10T01:44:37.919Z,12.9
2016-06-10T01:44:47.903Z,12.9
2016-06-10T01:44:57.903Z,12.9
2016-06-10T01:45:07.887Z,12.8
2016-06-10T01:45:17.890Z,12.7
2016-06-10T01:45:27.890Z,12.7
2016-06-10T01:45:37.875Z,12.7
2016-06-10T01:45:47.875Z,12.7
2016-06-10T01:45:57.875Z,12.6
2016-06-10T01:46:07.859Z,12.6
2016-06-10T01:46:17.862Z,12.5
2016-06-10T01:46:27.862Z,12.6
2016-06-10T01:46:37.846Z,12.6
2016-06-10T01:46:47.846Z,12.5
2016-06-10T01:46:57.846Z,12.6
2016-06-10T01:47:07.831Z,12.6
2016-06-10T01:47:17.834Z,12.6
2016-06-10T01:47:27.818Z,12.7
2016-06-10T01:47:37.818Z,12.6
2016-06-10T01:47:47.818Z,12.7
2016-06-10T01:47:57.803Z,12.7
2016-06-10T01:48:07.803Z,12.7
2016-06-10T01:48:17.806Z,12.7
2016-06-10T01:48:27.806Z,12.7
2016-06-10T01:48:37.790Z,12.7
2016-06-10T01:48:47.790Z,12.7
2016-06-10T01:48:57.774Z,12.7
2016-06-10T01:49:07.774Z,12.7
2016-06-10T01:49:17.777Z,12.7
2016-06-10T01:49:27.762Z,12.7
2016-06-10T01:49:37.762Z,12.6
2016-06-10T01:49:47.762Z,12.7
2016-06-10T01:49:57.746Z,12.7
2016-06-10T01:50:07.746Z,12.6
2016-06-10T01:50:17.733Z,12.7
2016-06-10T01:50:27.733Z,12.7
2016-06-10T01:50:37.733Z,12.7
2016-06-10T01:50:47.733Z,12.6
2016-06-10T01:50:57.718Z,12.5
2016-06-10T01:51:07.718Z,12.6
2016-06-10T01:51:17.722Z,12.7
2016-06-10T01:51:27.706Z,12.5
2016-06-10T01:51:37.706Z,12.5
2016-06-10T01:51:47.691Z,12.5
2016-06-10T01:51:57.691Z,12.5
2016-06-10T01:52:07.691Z,12.5
2016-06-10T01:52:17.678Z,12.6
2016-06-10T01:52:27.678Z,12.5
2016-06-10T01:52:37.662Z,12.6
2016-06-10T01:52:47.662Z,12.6
2016-06-10T01:52:57.662Z,12.6
2016-06-10T01:53:07.662Z,12.6
2016-06-10T01:53:17.649Z,12.6
2016-06-10T01:53:27.649Z,12.6
2016-06-10T01:53:37.633Z,12.6
2016-06-10T01:53:47.633Z,12.5
2016-06-10T01:53:57.633Z,12.5
2016-06-10T01:54:07.617Z,12.6
2016-06-10T01:54:17.621Z,12.6
2016-06-10T01:54:27.621Z,12.7
2016-06-10T01:54:38.028Z,12.7
2016-06-10T01:54:47.606Z,12.7
2016-06-10T01:54:57.606Z,12.7
2016-06-10T01:55:07.590Z,12.7
2016-06-10T01:55:17.593Z,12.6
2016-06-10T01:55:27.578Z,12.6
2016-06-10T01:55:37.578Z,12.7
2016-06-10T01:55:47.578Z,12.7
2016-06-10T01:55:57.562Z,12.7
2016-06-10T01:56:07.562Z,12.7
2016-06-10T01:56:17.564Z,12.8
2016-06-10T01:56:27.548Z,12.7
2016-06-10T01:56:37.548Z,12.7
2016-06-10T01:56:47.548Z,12.8
2016-06-10T01:56:57.533Z,12.8
2016-06-10T01:57:07.533Z,12.8
2016-06-10T01:57:17.521Z,12.8
2016-06-10T01:57:27.521Z,12.8
2016-06-10T01:57:37.521Z,12.7
2016-06-10T01:57:47.521Z,12.9
2016-06-10T01:57:57.505Z,12.9
2016-06-10T01:58:07.505Z,12.9
2016-06-10T01:58:17.493Z,12.8
2016-06-10T01:58:27.493Z,12.8
2016-06-10T01:58:37.493Z,12.9
2016-06-10T01:58:47.477Z,12.9
2016-06-10T01:58:57.477Z,12.8
2016-06-10T01:59:07.477Z,12.8
2016-06-10T01:59:17.465Z,12.9
2016-06-10T01:59:27.465Z,12.9
2016-06-10T01:59:37.465Z,12.9
2016-06-10T01:59:47.449Z,12.8
2016-06-10T01:59:57.449Z,12.7
2016-06-10T02:00:07.449Z,12.8
2016-06-10T02:00:17.452Z,12.8
2016-06-10T02:00:27.436Z,12.8
2016-06-10T02:00:37.421Z,12.7
2016-06-10T02:00:47.421Z,12.8
2016-06-10T02:00:57.421Z,12.8
2016-06-10T02:01:07.405Z,12.8
2016-06-10T02:01:17.408Z,12.8
2016-06-10T02:01:27.408Z,12.8
2016-06-10T02:01:37.392Z,12.7
2016-06-10T02:01:47.408Z,12.7
2016-06-10T02:01:57.392Z,12.7
2016-06-10T02:02:07.377Z,12.7
2016-06-10T02:02:17.380Z,12.7
2016-06-10T02:02:27.364Z,12.6
2016-06-10T02:02:37.364Z,12.7
2016-06-10T02:02:47.364Z,12.7
2016-06-10T02:02:57.364Z,12.7
2016-06-10T02:03:07.349Z,12.6
2016-06-10T02:03:17.352Z,12.6
2016-06-10T02:03:27.352Z,12.6
2016-06-10T02:03:37.336Z,12.6
2016-06-10T02:03:47.336Z,12.6
2016-06-10T02:03:57.320Z,12.5
2016-06-10T02:04:07.320Z,12.6
2016-06-10T02:04:17.323Z,12.5
2016-06-10T02:04:27.308Z,12.5
2016-06-10T02:04:37.308Z,12.5
2016-06-10T02:04:47.308Z,12.5
2016-06-10T02:04:57.292Z,12.6
2016-06-10T02:05:07.292Z,12.6
2016-06-10T02:05:17.296Z,12.6
2016-06-10T02:05:27.280Z,12.7
2016-06-10T02:05:37.280Z,12.7
2016-06-10T02:05:47.265Z,12.7
2016-06-10T02:05:57.265Z,12.8
2016-06-10T02:06:07.265Z,12.8
2016-06-10T02:06:17.251Z,12.8
2016-06-10T02:06:27.251Z,12.8
2016-06-10T02:06:37.251Z,12.8
2016-06-10T02:06:47.236Z,12.8
2016-06-10T02:06:57.236Z,12.9
2016-06-10T02:07:07.236Z,12.8
2016-06-10T02:07:17.224Z,12.8
2016-06-10T02:07:27.224Z,12.9
2016-06-10T02:07:37.224Z,12.9
2016-06-10T02:07:47.208Z,12.9
2016-06-10T02:07:57.208Z,12.9
2016-06-10T02:08:07.193Z,12.9
2016-06-10T02:08:17.196Z,12.9
2016-06-10T02:08:27.196Z,13
2016-06-10T02:08:37.196Z,12.9
2016-06-10T02:08:47.180Z,12.9
2016-06-10T02:08:57.180Z,13.1
2016-06-10T02:09:07.164Z,12.9
2016-06-10T02:09:17.166Z,12.9
2016-06-10T02:09:27.166Z,12.9
2016-06-10T02:09:37.151Z,12.9
2016-06-10T02:09:47.151Z,12.8
2016-06-10T02:09:57.151Z,12.8
2016-06-10T02:10:07.213Z,12.8
2016-06-10T02:10:17.577Z,12.8
2016-06-10T02:10:27.561Z,12.8
2016-06-10T02:10:37.124Z,12.8
2016-06-10T02:10:47.311Z,12.8
2016-06-10T02:10:57.124Z,12.8
2016-06-10T02:11:07.108Z,12.8
2016-06-10T02:11:17.110Z,12.8
2016-06-10T02:11:27.094Z,12.7
2016-06-10T02:11:37.094Z,12.9
2016-06-10T02:11:47.094Z,12.9
2016-06-10T02:11:57.079Z,12.7
2016-06-10T02:12:07.079Z,12.8
2016-06-10T02:12:17.083Z,12.8
2016-06-10T02:12:27.067Z,12.8
2016-06-10T02:12:37.067Z,12.8
2016-06-10T02:12:47.051Z,12.8
2016-06-10T02:12:57.051Z,12.7
2016-06-10T02:13:07.051Z,12.8
2016-06-10T02:13:17.054Z,12.7
2016-06-10T02:13:27.039Z,12.7
2016-06-10T02:13:37.039Z,12.8
2016-06-10T02:13:47.039Z,12.8
2016-06-10T02:13:57.023Z,12.8